Time;durP1;ratioP1;P1;durP2;ratioP2;P2;SDS_P1;SDS_P2;PMS_P1;PMS_P2;Temp;Humidity;BMP_temperature;BMP_pressure;BME280_temperature;BME280_humidity;BME280_pressure;Samples;Min_cycle;Max_cycle;Signal;HPM_P1;HPM_P2
2022/03/13 00:00:21;;;;;;;57.00;51.20;;;;;;;-3.68;37.13;98939.98;105799;1281;23936;-77
2022/03/13 00:03:13;;;;;;;77.70;59.70;;;;;;;-3.71;37.53;98937.06;105610;1281;24095;-75
2022/03/13 00:05:44;;;;;;;84.60;61.80;;;;;;;-3.79;37.40;98939.46;105783;1281;25344;-77
2022/03/13 00:08:23;;;;;;;96.40;64.80;;;;;;;-3.89;37.54;98937.80;105902;1281;25436;-77
2022/03/13 00:10:56;;;;;;;102.00;67.60;;;;;;;-3.97;37.34;98942.77;106017;1280;22777;-76
2022/03/13 00:13:34;;;;;;;87.00;65.20;;;;;;;-4.06;38.85;98942.77;105863;1280;22690;-75
2022/03/13 00:16:10;;;;;;;97.10;74.90;;;;;;;-4.10;38.68;98942.08;105884;1281;25381;-77
2022/03/13 00:18:44;;;;;;;69.20;60.40;;;;;;;-4.11;38.55;98938.55;105877;1280;25346;-76
2022/03/13 00:21:15;;;;;;;66.00;56.80;;;;;;;-4.09;38.46;98944.00;105879;1281;22579;-82
2022/03/13 00:23:44;;;;;;;68.60;55.90;;;;;;;-4.10;38.47;98940.42;105771;1281;22557;-78
2022/03/13 00:26:15;;;;;;;69.70;59.10;;;;;;;-4.11;38.53;98939.98;105841;1281;24262;-77
2022/03/13 00:28:44;;;;;;;64.10;57.20;;;;;;;-4.17;38.37;98936.47;105715;1281;24369;-76
2022/03/13 00:31:13;;;;;;;56.90;51.20;;;;;;;-4.25;38.24;98936.58;105985;1281;22657;-77
2022/03/13 00:33:41;;;;;;;55.70;50.00;;;;;;;-4.32;38.43;98934.04;105815;1281;22556;-77
2022/03/13 00:36:09;;;;;;;83.60;67.50;;;;;;;-4.39;38.56;98931.63;105934;1281;22562;-77
2022/03/13 00:38:37;;;;;;;78.40;65.60;;;;;;;-4.47;38.80;98929.42;105624;1281;24358;-78
2022/03/13 00:41:08;;;;;;;104.60;73.70;;;;;;;-4.53;39.08;98932.23;105891;1281;22545;-76
2022/03/13 00:43:36;;;;;;;68.50;56.00;;;;;;;-4.57;39.37;98929.73;105703;1281;22566;-77
2022/03/13 00:46:04;;;;;;;130.80;79.80;;;;;;;-4.58;38.94;98934.34;105808;1281;26603;-78
2022/03/13 00:48:32;;;;;;;152.40;92.00;;;;;;;-4.60;39.09;98935.25;105955;1281;22760;-78
2022/03/13 00:51:00;;;;;;;125.20;79.40;;;;;;;-4.60;39.19;98937.65;105807;1281;24268;-79
2022/03/13 00:53:28;;;;;;;90.70;68.50;;;;;;;-4.60;39.04;98932.15;105939;1281;22718;-78
2022/03/13 00:55:56;;;;;;;88.90;68.00;;;;;;;-4.57;39.17;98931.08;105710;1280;22540;-79
2022/03/13 00:58:24;;;;;;;79.10;65.60;;;;;;;-4.52;39.48;98932.52;105935;1279;25389;-77
2022/03/13 01:00:53;;;;;;;132.20;89.10;;;;;;;-4.48;39.67;98927.42;106013;1281;22534;-78
2022/03/13 01:03:47;;;;;;;128.40;83.60;;;;;;;-4.43;39.57;98927.72;106254;1279;22712;-77
2022/03/13 01:06:16;;;;;;;123.60;82.10;;;;;;;-4.38;39.92;98928.64;105888;1280;25713;-77
2022/03/13 01:08:46;;;;;;;117.00;81.30;;;;;;;-4.36;39.69;98928.68;105810;1281;22697;-77
2022/03/13 01:11:16;;;;;;;162.60;97.60;;;;;;;-4.34;39.58;98927.25;105713;1280;24316;-77
2022/03/13 01:13:45;;;;;;;191.70;115.90;;;;;;;-4.33;39.64;98926.41;106006;1279;22548;-76
2022/03/13 01:16:16;;;;;;;147.20;91.90;;;;;;;-4.33;39.87;98923.24;105719;1279;22756;-76
2022/03/13 01:18:47;;;;;;;88.40;73.10;;;;;;;-4.31;40.01;98920.65;106009;1281;22560;-75
2022/03/13 01:21:15;;;;;;;92.30;74.60;;;;;;;-4.31;40.16;98918.80;105756;1280;24732;-77
2022/03/13 01:24:02;;;;;;;147.10;94.30;;;;;;;-4.30;40.21;98915.96;105216;1281;361958;-76
2022/03/13 01:26:31;;;;;;;141.20;89.40;;;;;;;-4.28;40.28;98914.11;105827;1280;25409;-77
2022/03/13 01:28:59;;;;;;;116.20;79.30;;;;;;;-4.27;40.42;98912.39;105937;1279;25399;-77
2022/03/13 01:31:29;;;;;;;96.30;75.00;;;;;;;-4.26;40.52;98906.13;105698;1280;22565;-76
2022/03/13 01:33:59;;;;;;;75.40;66.90;;;;;;;-4.27;40.61;98901.23;105791;1281;24437;-77
2022/03/13 01:36:28;;;;;;;73.70;65.30;;;;;;;-4.27;40.53;98899.79;105679;1280;22563;-77
2022/03/13 01:38:58;;;;;;;68.50;61.30;;;;;;;-4.27;40.86;98892.78;105792;1280;23940;-77
2022/03/13 01:41:28;;;;;;;57.60;51.60;;;;;;;-4.28;40.65;98887.86;105669;1280;22554;-77
2022/03/13 01:43:58;;;;;;;55.50;49.70;;;;;;;-4.27;40.66;98884.30;105396;1281;24399;-77
2022/03/13 01:46:28;;;;;;;55.30;49.70;;;;;;;-4.22;40.82;98884.44;105657;1280;22559;-77
2022/03/13 01:48:59;;;;;;;55.50;49.70;;;;;;;-4.17;40.77;98875.58;105805;1280;26254;-77
2022/03/13 01:51:27;;;;;;;60.30;54.00;;;;;;;-4.12;40.79;98872.37;105905;1280;22663;-76
2022/03/13 01:53:57;;;;;;;56.60;49.40;;;;;;;-4.07;40.69;98867.77;105725;1280;26053;-76
2022/03/13 01:56:25;;;;;;;58.20;52.00;;;;;;;-4.01;40.68;98865.02;105660;1280;25435;-78
2022/03/13 01:58:55;;;;;;;58.20;52.10;;;;;;;-3.95;40.65;98867.05;105927;1280;25731;-77
2022/03/13 02:01:26;;;;;;;58.10;52.00;;;;;;;-3.88;40.90;98865.34;105714;1280;22890;-76
2022/03/13 02:03:55;;;;;;;56.60;50.60;;;;;;;-3.82;40.94;98863.27;105772;1280;22693;-81
2022/03/13 02:06:24;;;;;;;59.70;53.60;;;;;;;-3.76;41.01;98867.92;105806;1280;22714;-81
2022/03/13 02:08:54;;;;;;;58.60;52.20;;;;;;;-3.71;41.13;98869.52;105470;1281;23828;-75
2022/03/13 02:11:25;;;;;;;57.20;51.10;;;;;;;-3.71;41.19;98867.58;105756;1280;22581;-74
2022/03/13 02:13:56;;;;;;;61.40;54.70;;;;;;;-3.76;41.11;98863.18;105666;1280;23987;-75
2022/03/13 02:16:24;;;;;;;63.20;54.50;;;;;;;-3.83;41.21;98860.74;105714;1280;25306;-74
2022/03/13 02:18:53;;;;;;;66.90;57.90;;;;;;;-3.95;41.28;98859.19;105548;1280;22556;-74
2022/03/13 02:21:31;;;;;;;68.40;57.90;;;;;;;-4.09;41.48;98858.56;105912;1280;23822;-74
2022/03/13 02:24:01;;;;;;;70.40;63.00;;;;;;;-4.21;41.53;98856.93;105821;1280;22562;-75
2022/03/13 02:26:32;;;;;;;67.90;60.50;;;;;;;-4.29;41.86;98853.71;105801;1280;22560;-75
2022/03/13 02:29:01;;;;;;;77.20;66.10;;;;;;;-4.35;42.18;98855.63;105637;1280;25489;-75
2022/03/13 02:31:34;;;;;;;73.30;64.20;;;;;;;-4.39;42.09;98852.20;105719;1280;22540;-74
2022/03/13 02:34:08;;;;;;;67.00;59.80;;;;;;;-4.45;42.12;98848.16;105754;1280;22692;-74
2022/03/13 02:36:42;;;;;;;85.80;73.30;;;;;;;-4.51;42.31;98844.53;105633;1280;24365;-76
2022/03/13 02:39:11;;;;;;;95.30;71.90;;;;;;;-4.61;42.20;98849.84;105643;1280;22576;-74
2022/03/13 02:41:40;;;;;;;79.90;68.30;;;;;;;-4.73;41.92;98852.15;105770;1280;22880;-75
2022/03/13 02:44:11;;;;;;;76.20;64.20;;;;;;;-4.87;41.84;98846.98;105648;1280;24291;-75
2022/03/13 02:46:47;;;;;;;76.20;67.30;;;;;;;-5.01;42.23;98847.27;105734;1280;22802;-73
2022/03/13 02:49:18;;;;;;;74.80;66.70;;;;;;;-5.10;42.05;98849.89;105719;1280;24327;-75
2022/03/13 02:51:48;;;;;;;72.00;63.60;;;;;;;-5.18;42.58;98846.15;105712;1280;25380;-75
2022/03/13 02:54:16;;;;;;;70.00;62.30;;;;;;;-5.24;42.65;98852.02;105395;1280;25444;-75
2022/03/13 02:56:45;;;;;;;71.10;63.50;;;;;;;-5.29;43.40;98853.39;105724;1280;22557;-74
2022/03/13 02:59:14;;;;;;;71.70;61.40;;;;;;;-5.31;43.86;98855.77;105721;1280;22567;-75
2022/03/13 03:01:42;;;;;;;68.90;61.50;;;;;;;-5.33;44.18;98853.74;105730;1280;24440;-76
2022/03/13 03:04:12;;;;;;;65.90;59.00;;;;;;;-5.31;44.27;98852.14;105778;1280;25341;-77
2022/03/13 03:06:50;;;;;;;73.60;62.90;;;;;;;-5.29;44.01;98849.83;105757;1280;25312;-77
2022/03/13 03:09:18;;;;;;;73.10;65.40;;;;;;;-5.27;43.94;98847.64;105721;1280;24127;-76
2022/03/13 03:11:47;;;;;;;83.30;72.30;;;;;;;-5.23;43.91;98849.86;105811;1280;25043;-73
2022/03/13 03:14:15;;;;;;;71.60;64.10;;;;;;;-5.22;43.75;98847.29;105761;1280;24250;-75
2022/03/13 03:16:44;;;;;;;77.10;69.20;;;;;;;-5.27;43.59;98851.82;105527;1280;22576;-74
2022/03/13 03:19:12;;;;;;;74.80;66.80;;;;;;;-5.36;43.90;98852.13;105689;1280;23252;-73
2022/03/13 03:21:40;;;;;;;80.50;70.90;;;;;;;-5.41;43.80;98852.52;105726;1280;24459;-74
2022/03/13 03:24:13;;;;;;;101.20;77.30;;;;;;;-5.45;43.95;98849.36;105698;1280;22608;-72
2022/03/13 03:26:41;;;;;;;98.90;75.40;;;;;;;-5.52;43.87;98845.16;105746;1280;22593;-74
2022/03/13 03:29:10;;;;;;;106.60;78.00;;;;;;;-5.58;43.72;98842.52;105683;1280;22651;-74
2022/03/13 03:31:44;;;;;;;97.90;73.60;;;;;;;-5.65;43.74;98843.64;105683;1278;22712;-73
2022/03/13 03:34:16;;;;;;;100.90;73.10;;;;;;;-5.67;44.15;98847.98;105694;1280;24531;-74
2022/03/13 03:36:47;;;;;;;87.40;70.10;;;;;;;-5.65;44.07;98849.33;105769;1280;22557;-72
2022/03/13 03:39:17;;;;;;;74.50;66.20;;;;;;;-5.61;44.21;98847.40;105744;1280;25743;-74
2022/03/13 03:41:47;;;;;;;68.60;61.30;;;;;;;-5.55;44.38;98847.40;105746;1280;22640;-75
2022/03/13 03:44:16;;;;;;;64.50;57.60;;;;;;;-5.47;44.38;98851.14;105676;1280;24324;-73
2022/03/13 03:46:46;;;;;;;64.60;56.70;;;;;;;-5.37;44.37;98848.79;105763;1280;22562;-75
2022/03/13 03:49:16;;;;;;;61.30;54.10;;;;;;;-5.29;44.44;98840.82;105715;1280;22659;-74
2022/03/13 03:51:44;;;;;;;67.90;60.60;;;;;;;-5.28;44.90;98849.86;105602;1280;22557;-73
2022/03/13 03:54:14;;;;;;;98.10;76.20;;;;;;;-5.30;45.09;98844.25;105514;1280;22550;-74
2022/03/13 03:56:42;;;;;;;114.50;81.00;;;;;;;-5.31;45.08;98841.95;105650;1279;22736;-74
2022/03/13 03:59:11;;;;;;;111.20;80.70;;;;;;;-5.31;45.38;98840.74;105541;1280;22998;-74
2022/03/13 04:01:43;;;;;;;138.60;90.70;;;;;;;-5.33;45.23;98841.43;105678;1280;25255;-73
2022/03/13 04:04:17;;;;;;;128.90;84.40;;;;;;;-5.35;45.48;98835.25;105603;1280;22713;-73
2022/03/13 04:06:45;;;;;;;90.10;72.40;;;;;;;-5.40;45.40;98835.11;105721;1280;24346;-74
2022/03/13 04:09:13;;;;;;;81.60;70.10;;;;;;;-5.46;45.31;98837.35;105576;1280;22661;-74
2022/03/13 04:11:41;;;;;;;71.00;64.00;;;;;;;-5.44;45.60;98841.33;105730;1280;23442;-73
2022/03/13 04:14:09;;;;;;;79.90;69.70;;;;;;;-5.41;45.65;98842.02;105570;1280;22546;-73
2022/03/13 04:16:37;;;;;;;94.70;75.50;;;;;;;-5.46;45.68;98843.89;105723;1280;24457;-74
2022/03/13 04:19:05;;;;;;;116.10;81.40;;;;;;;-5.53;45.78;98846.55;105720;1280;22551;-74
2022/03/13 04:21:34;;;;;;;134.00;90.60;;;;;;;-5.57;46.64;98846.87;105731;1280;22556;-71
2022/03/13 04:24:03;;;;;;;183.00;132.60;;;;;;;-5.61;46.25;98846.58;105702;1280;24310;-74
2022/03/13 04:26:31;;;;;;;146.40;103.50;;;;;;;-5.65;45.93;98848.20;105729;1280;25331;-74
2022/03/13 04:29:00;;;;;;;137.90;101.80;;;;;;;-5.67;45.95;98844.12;105720;1280;22548;-75
2022/03/13 04:31:28;;;;;;;146.40;104.50;;;;;;;-5.68;46.02;98842.31;105797;1280;22622;-75
2022/03/13 04:33:56;;;;;;;88.50;76.10;;;;;;;-5.69;46.08;98843.40;105662;1280;22560;-74
2022/03/13 04:36:23;;;;;;;80.00;69.90;;;;;;;-5.72;46.28;98840.80;105648;1280;25259;-74
2022/03/13 04:38:51;;;;;;;97.50;75.60;;;;;;;-5.79;46.57;98840.98;105620;1280;22800;-75
2022/03/13 04:41:20;;;;;;;86.30;73.00;;;;;;;-5.84;47.79;98843.90;105615;1278;25383;-74
2022/03/13 04:43:48;;;;;;;73.50;66.00;;;;;;;-5.88;47.14;98839.11;105672;1280;25388;-75
2022/03/13 04:46:16;;;;;;;64.60;57.70;;;;;;;-5.92;46.73;98844.66;105566;1280;22700;-74
2022/03/13 04:48:45;;;;;;;65.30;58.30;;;;;;;-5.90;46.75;98845.11;105584;1280;26657;-74
2022/03/13 04:51:14;;;;;;;62.60;56.30;;;;;;;-5.86;46.89;98843.44;105692;1280;22798;-76
2022/03/13 04:53:42;;;;;;;56.50;50.80;;;;;;;-5.83;46.53;98843.56;105674;1280;22559;-74
2022/03/13 04:56:10;;;;;;;48.50;43.60;;;;;;;-5.84;46.62;98841.66;105719;1279;22660;-77
2022/03/13 04:58:38;;;;;;;53.30;47.70;;;;;;;-5.79;46.94;98845.02;105645;1280;22576;-76
2022/03/13 05:01:06;;;;;;;51.50;46.00;;;;;;;-5.72;46.97;98843.72;105498;1281;26635;-74
2022/03/13 05:03:34;;;;;;;55.60;49.60;;;;;;;-5.70;46.77;98845.12;105711;1280;22580;-74
2022/03/13 05:06:05;;;;;;;53.30;47.60;;;;;;;-5.70;46.90;98844.92;105719;1280;25326;-74
2022/03/13 05:08:34;;;;;;;49.00;44.00;;;;;;;-5.61;47.28;98849.17;105778;1280;25397;-75
2022/03/13 05:11:07;;;;;;;49.90;44.90;;;;;;;-5.47;47.40;98849.20;105722;1280;22748;-74
2022/03/13 05:13:35;;;;;;;52.10;46.60;;;;;;;-5.34;47.38;98853.01;105574;1280;26638;-75
2022/03/13 05:16:03;;;;;;;59.80;53.20;;;;;;;-5.25;47.27;98854.03;105758;1280;25985;-73
2022/03/13 05:18:32;;;;;;;58.00;52.00;;;;;;;-5.21;47.08;98852.75;105619;1280;26889;-74
2022/03/13 05:21:00;;;;;;;55.80;49.90;;;;;;;-5.20;47.04;98849.80;105745;1280;25371;-74
2022/03/13 05:23:28;;;;;;;55.10;49.40;;;;;;;-5.21;47.23;98848.73;105560;1280;25316;-74
2022/03/13 05:25:55;;;;;;;58.80;51.90;;;;;;;-5.24;47.33;98852.20;105638;1280;24278;-74
2022/03/13 05:28:23;;;;;;;204.80;107.90;;;;;;;-5.31;47.29;98852.62;105586;1280;22550;-73
2022/03/13 05:30:52;;;;;;;170.90;94.50;;;;;;;-5.39;47.30;98857.60;105622;1280;25528;-75
2022/03/13 05:33:20;;;;;;;317.20;185.60;;;;;;;-5.48;47.27;98856.66;105680;1280;22665;-75
2022/03/13 05:35:51;;;;;;;311.90;189.10;;;;;;;-5.57;47.62;98855.59;105717;1280;24792;-74
2022/03/13 05:38:19;;;;;;;234.50;127.30;;;;;;;-5.66;47.95;98854.33;105752;1280;24521;-74
2022/03/13 05:40:47;;;;;;;121.00;74.30;;;;;;;-5.73;47.74;98856.16;105717;1280;23256;-75
2022/03/13 05:43:15;;;;;;;83.20;64.40;;;;;;;-5.77;48.10;98857.77;105735;1280;23161;-76
2022/03/13 05:45:48;;;;;;;72.30;64.80;;;;;;;-5.76;49.01;98862.61;105728;1280;22566;-75
2022/03/13 05:48:18;;;;;;;86.90;65.60;;;;;;;-5.73;48.66;98860.77;105646;1280;24509;-75
2022/03/13 05:50:46;;;;;;;63.10;55.00;;;;;;;-5.67;48.48;98865.09;105738;1280;23486;-75
2022/03/13 05:53:15;;;;;;;65.80;59.20;;;;;;;-5.57;48.38;98866.78;105722;1280;25385;-75
2022/03/13 05:55:43;;;;;;;61.40;55.40;;;;;;;-5.44;48.39;98863.80;105732;1280;25380;-75
2022/03/13 05:58:14;;;;;;;66.20;59.10;;;;;;;-5.33;48.44;98865.48;105706;1280;22616;-75
2022/03/13 06:00:42;;;;;;;66.80;59.30;;;;;;;-5.22;48.26;98864.43;105582;1280;22572;-75
2022/03/13 06:03:11;;;;;;;91.80;67.10;;;;;;;-5.14;48.23;98864.94;105764;1280;22799;-74
2022/03/13 06:05:39;;;;;;;116.50;87.30;;;;;;;-5.10;48.18;98861.65;105601;1280;22560;-74
2022/03/13 06:08:07;;;;;;;101.80;86.30;;;;;;;-5.04;48.08;98860.77;105563;1280;22565;-75
2022/03/13 06:10:34;;;;;;;76.40;68.00;;;;;;;-4.93;48.24;98866.07;105575;1279;24475;-73
2022/03/13 06:13:02;;;;;;;76.90;68.50;;;;;;;-4.84;48.22;98869.71;105623;1280;25820;-74
2022/03/13 06:15:31;;;;;;;74.70;65.00;;;;;;;-4.76;48.20;98870.71;105665;1280;22550;-73
2022/03/13 06:18:01;;;;;;;69.60;61.50;;;;;;;-4.65;48.48;98870.36;105607;1280;24239;-74
2022/03/13 06:20:29;;;;;;;66.60;59.70;;;;;;;-4.52;48.41;98875.34;105708;1280;22558;-74
2022/03/13 06:22:58;;;;;;;66.90;60.10;;;;;;;-4.39;48.28;98872.73;105701;1280;25261;-75
2022/03/13 06:25:26;;;;;;;64.40;57.70;;;;;;;-4.22;48.37;98879.73;105736;1280;22590;-74
2022/03/13 06:27:55;;;;;;;71.50;63.70;;;;;;;-4.04;48.61;98877.29;105597;1280;23341;-76
2022/03/13 06:30:23;;;;;;;86.00;69.60;;;;;;;-3.85;48.35;98880.28;105645;1280;22611;-76
2022/03/13 06:32:53;;;;;;;119.50;77.20;;;;;;;-3.67;48.51;98876.91;105616;1280;26655;-75
2022/03/13 06:35:22;;;;;;;161.50;91.80;;;;;;;-3.49;48.41;98880.21;105713;1280;22664;-73
2022/03/13 06:37:52;;;;;;;145.80;85.10;;;;;;;-3.33;48.42;98881.13;105730;1280;24551;-75
2022/03/13 06:40:23;;;;;;;145.00;85.60;;;;;;;-3.17;48.39;98884.60;105652;1280;24289;-74
2022/03/13 06:42:56;;;;;;;167.10;99.60;;;;;;;-3.00;48.53;98887.30;105777;1280;22702;-76
2022/03/13 06:45:25;;;;;;;152.40;87.60;;;;;;;-2.84;48.38;98882.84;105677;1280;22711;-75
2022/03/13 06:47:53;;;;;;;147.40;93.10;;;;;;;-2.67;48.26;98885.06;105821;1280;22826;-74
2022/03/13 06:50:25;;;;;;;188.50;115.00;;;;;;;-2.53;48.16;98886.13;105639;1280;22734;-76
2022/03/13 06:52:53;;;;;;;180.40;116.90;;;;;;;-2.44;48.32;98890.30;105595;1280;25541;-79
2022/03/13 06:55:23;;;;;;;181.90;119.10;;;;;;;-2.38;48.38;98887.77;105884;1280;23406;-75
2022/03/13 06:57:51;;;;;;;174.70;118.20;;;;;;;-2.33;48.43;98890.83;105600;1280;25416;-77
2022/03/13 07:00:20;;;;;;;175.70;116.80;;;;;;;-2.29;48.55;98891.50;105962;1280;22568;-78
2022/03/13 07:02:49;;;;;;;174.30;114.40;;;;;;;-2.21;48.73;98892.55;105817;1280;23184;-75
2022/03/13 07:05:19;;;;;;;176.90;110.80;;;;;;;-2.16;48.67;98888.15;105719;1280;22551;-76
2022/03/13 07:07:47;;;;;;;168.70;111.60;;;;;;;-2.10;49.04;98890.42;105773;1280;22556;-77
2022/03/13 07:10:15;;;;;;;166.80;112.20;;;;;;;-2.04;49.09;98886.97;105734;1280;25393;-76
2022/03/13 07:12:47;;;;;;;172.50;114.70;;;;;;;-1.96;49.23;98887.60;105601;1280;23063;-76
2022/03/13 07:15:15;;;;;;;178.50;114.20;;;;;;;-1.87;49.37;98889.45;105996;1280;24336;-75
2022/03/13 07:17:44;;;;;;;163.10;107.50;;;;;;;-1.76;49.44;98891.55;105420;1280;24338;-75
2022/03/13 07:20:14;;;;;;;110.60;84.80;;;;;;;-1.62;49.27;98889.91;105613;1280;22559;-78
2022/03/13 07:22:45;;;;;;;87.70;75.80;;;;;;;-1.43;49.53;98891.06;105703;1280;24476;-76
2022/03/13 07:25:14;;;;;;;86.70;72.70;;;;;;;-1.20;49.34;98889.11;105814;1280;25482;-75
2022/03/13 07:27:43;;;;;;;79.00;70.50;;;;;;;-0.96;49.05;98895.44;105671;1280;25269;-75
2022/03/13 07:30:13;;;;;;;80.20;71.70;;;;;;;-0.78;48.77;98885.08;105587;1279;26256;-75
2022/03/13 07:32:43;;;;;;;78.00;69.80;;;;;;;-0.56;48.44;98890.91;105809;1280;24018;-75
2022/03/13 07:35:13;;;;;;;79.10;70.50;;;;;;;-0.37;48.59;98892.84;105789;1280;22559;-75
2022/03/13 07:37:43;;;;;;;75.30;67.20;;;;;;;-0.19;48.51;98894.02;105738;1280;22540;-76
2022/03/13 07:40:13;;;;;;;76.60;67.10;;;;;;;0.01;48.40;98891.64;105566;1280;25332;-75
2022/03/13 07:42:41;;;;;;;73.90;65.50;;;;;;;0.20;48.23;98890.80;105558;1280;22716;-80
2022/03/13 07:45:10;;;;;;;71.30;63.70;;;;;;;0.40;48.28;98893.35;105999;1280;24374;-74
2022/03/13 07:47:38;;;;;;;74.90;67.10;;;;;;;0.60;48.09;98900.92;105707;1280;22682;-76
2022/03/13 07:50:08;;;;;;;71.80;63.80;;;;;;;0.79;48.09;98903.22;105718;1280;23398;-76
2022/03/13 07:52:35;;;;;;;72.70;63.50;;;;;;;0.97;47.85;98905.43;105669;1280;22576;-76
2022/03/13 07:55:04;;;;;;;70.60;63.10;;;;;;;1.15;47.70;98899.61;105566;1280;25262;-77
2022/03/13 07:57:32;;;;;;;63.00;56.40;;;;;;;1.32;47.62;98899.74;106058;1279;24296;-77
2022/03/13 08:00:00;;;;;;;86.20;59.80;;;;;;;1.48;47.32;98898.50;106040;1278;22720;-76
2022/03/13 08:02:31;;;;;;;67.00;56.10;;;;;;;1.63;47.08;98894.64;106019;1280;26564;-80
2022/03/13 08:04:59;;;;;;;65.50;51.50;;;;;;;1.77;46.69;98890.31;105727;1280;22529;-79
2022/03/13 08:07:27;;;;;;;56.60;50.50;;;;;;;1.94;46.69;98895.12;105607;1279;22574;-76
2022/03/13 08:09:55;;;;;;;51.40;46.30;;;;;;;2.12;46.49;98887.54;105719;1279;25166;-76
2022/03/13 08:12:23;;;;;;;50.60;45.50;;;;;;;2.30;46.12;98890.23;105549;1280;22705;-75
2022/03/13 08:14:52;;;;;;;59.70;44.40;;;;;;;2.40;45.90;98892.62;105502;1280;22549;-76
2022/03/13 08:17:20;;;;;;;51.70;46.20;;;;;;;2.47;45.56;98891.06;105708;1279;23317;-76
2022/03/13 08:19:48;;;;;;;51.10;45.60;;;;;;;2.52;45.46;98893.65;105835;1280;25380;-76
2022/03/13 08:22:16;;;;;;;54.10;48.30;;;;;;;2.58;45.40;98895.54;105714;1280;22556;-77
2022/03/13 08:24:44;;;;;;;50.20;44.60;;;;;;;2.65;45.25;98897.95;105868;1280;22716;-78
2022/03/13 08:27:12;;;;;;;48.20;43.30;;;;;;;2.70;44.96;98897.48;105641;1280;25320;-75
2022/03/13 08:29:40;;;;;;;52.80;47.20;;;;;;;2.77;44.97;98897.94;105771;1280;24329;-76
2022/03/13 08:32:08;;;;;;;52.20;47.00;;;;;;;2.82;44.85;98897.33;105588;1280;24400;-75
2022/03/13 08:34:38;;;;;;;50.60;45.50;;;;;;;2.89;44.64;98894.43;105624;1280;22662;-76
2022/03/13 08:37:07;;;;;;;53.00;47.40;;;;;;;2.97;44.56;98898.59;105732;1279;24318;-76
2022/03/13 08:39:35;;;;;;;51.90;46.60;;;;;;;3.05;44.16;98899.17;105770;1279;22573;-76
2022/03/13 08:42:05;;;;;;;54.70;48.70;;;;;;;3.10;44.19;98897.30;105558;1280;25608;-79
2022/03/13 08:44:36;;;;;;;58.00;52.30;;;;;;;3.16;44.07;98896.70;105826;1280;23999;-75
2022/03/13 08:47:04;;;;;;;55.60;50.00;;;;;;;3.25;43.80;98894.90;105696;1280;25879;-76
2022/03/13 08:49:32;;;;;;;53.90;48.40;;;;;;;3.35;43.98;98897.73;105761;1280;23234;-77
2022/03/13 08:52:00;;;;;;;50.30;45.20;;;;;;;3.47;43.85;98898.42;105816;1280;22728;-74
2022/03/13 08:54:28;;;;;;;45.50;40.80;;;;;;;3.60;43.60;98897.61;105729;1280;23160;-74
2022/03/13 08:56:56;;;;;;;52.10;40.00;;;;;;;3.69;43.05;98898.10;105745;1280;22560;-76
2022/03/13 08:59:24;;;;;;;44.90;40.30;;;;;;;3.76;42.87;98900.77;105663;1280;25337;-75
2022/03/13 09:01:57;;;;;;;47.10;42.20;;;;;;;3.85;42.84;98899.77;105705;1280;26685;-75
2022/03/13 09:04:26;;;;;;;41.10;36.70;;;;;;;3.94;42.58;98900.19;105765;1278;25252;-76
2022/03/13 09:06:54;;;;;;;42.20;37.70;;;;;;;4.01;42.36;98905.85;105622;1281;22702;-76
2022/03/13 09:09:23;;;;;;;42.90;38.60;;;;;;;4.10;42.71;98901.84;105737;1280;22554;-76
2022/03/13 09:11:51;;;;;;;41.90;37.40;;;;;;;4.20;42.10;98904.37;105787;1280;22729;-75
2022/03/13 09:14:20;;;;;;;41.30;37.10;;;;;;;4.32;42.45;98903.98;105758;1280;24405;-75
2022/03/13 09:16:48;;;;;;;39.60;35.80;;;;;;;4.44;42.02;98903.66;105840;1280;23791;-78
2022/03/13 09:19:16;;;;;;;43.50;38.90;;;;;;;4.53;41.54;98902.26;105800;1280;24243;-76
2022/03/13 09:21:44;;;;;;;41.50;36.90;;;;;;;4.63;41.24;98903.05;105695;1280;22721;-75
2022/03/13 09:24:12;;;;;;;34.60;30.90;;;;;;;4.69;40.67;98903.91;105674;1280;22684;-76
2022/03/13 09:26:45;;;;;;;39.20;35.20;;;;;;;4.72;40.41;98905.00;105718;1280;22547;-75
2022/03/13 09:29:13;;;;;;;39.90;35.70;;;;;;;4.78;40.81;98903.30;105773;1280;25307;-75
2022/03/13 09:31:41;;;;;;;42.50;32.10;;;;;;;4.87;40.33;98903.81;105692;1279;22566;-75
2022/03/13 09:34:10;;;;;;;39.20;35.10;;;;;;;4.98;40.21;98902.27;105698;1280;23961;-75
2022/03/13 09:36:38;;;;;;;38.90;34.60;;;;;;;5.10;40.07;98901.68;105757;1280;22563;-74
2022/03/13 09:39:07;;;;;;;37.70;33.80;;;;;;;5.20;39.60;98900.76;105759;1280;22546;-75
2022/03/13 09:41:37;;;;;;;34.50;30.80;;;;;;;5.30;38.68;98899.81;105795;1280;22564;-76
2022/03/13 09:44:07;;;;;;;35.30;31.40;;;;;;;5.36;38.57;98897.30;105769;1279;25432;-74
2022/03/13 09:46:38;;;;;;;33.10;29.10;;;;;;;5.42;38.63;98897.37;105750;1280;25413;-74
2022/03/13 09:49:06;;;;;;;68.10;32.20;;;;;;;5.51;38.11;98896.05;105784;1279;25437;-76
2022/03/13 09:51:34;;;;;;;31.80;28.60;;;;;;;5.66;38.13;98891.95;105879;1280;22557;-75
2022/03/13 09:54:03;;;;;;;31.90;28.20;;;;;;;5.88;37.79;98890.53;105993;1280;23990;-75
2022/03/13 09:56:33;;;;;;;31.00;27.90;;;;;;;6.08;38.02;98888.23;105990;1280;25277;-74
2022/03/13 09:59:01;;;;;;;30.40;27.30;;;;;;;6.29;37.83;98887.38;105704;1279;25441;-74
2022/03/13 10:01:29;;;;;;;29.40;26.20;;;;;;;6.46;37.54;98882.19;105838;1280;25427;-75
2022/03/13 10:03:59;;;;;;;28.60;25.70;;;;;;;6.62;37.45;98882.02;105784;1280;22558;-74
2022/03/13 10:06:29;;;;;;;24.30;21.80;;;;;;;6.75;37.21;98882.29;105684;1280;22547;-75
2022/03/13 10:08:56;;;;;;;28.80;25.60;;;;;;;6.85;36.57;98875.98;105766;1280;25423;-75
2022/03/13 10:11:35;;;;;;;26.30;23.50;;;;;;;6.97;36.48;98877.61;105815;1280;22721;-74
2022/03/13 10:14:08;;;;;;;25.00;22.50;;;;;;;7.08;35.00;98869.21;105815;1280;25307;-75
2022/03/13 10:16:38;;;;;;;23.90;21.30;;;;;;;7.11;35.45;98866.52;105823;1280;22760;-76
2022/03/13 10:19:16;;;;;;;21.70;19.50;;;;;;;7.15;35.00;98866.66;105874;1280;23234;-75
2022/03/13 10:22:08;;;;;;;23.70;20.50;;;;;;;7.18;35.02;98868.05;105762;1280;22710;-75
2022/03/13 10:24:41;;;;;;;25.50;19.60;;;;;;;7.23;34.92;98868.30;105672;1280;22558;-75
2022/03/13 10:27:09;;;;;;;23.20;20.70;;;;;;;7.22;34.14;98867.33;105831;1280;24612;-75
2022/03/13 10:29:39;;;;;;;23.40;20.10;;;;;;;7.29;34.63;98868.27;105843;1280;22665;-76
2022/03/13 10:32:08;;;;;;;22.10;19.60;;;;;;;7.35;34.19;98866.97;105919;1280;22611;-75
2022/03/13 10:34:37;;;;;;;21.30;19.00;;;;;;;7.42;34.45;98867.14;105960;1280;25670;-75
2022/03/13 10:37:06;;;;;;;23.20;20.20;;;;;;;7.50;33.67;98866.73;105799;1280;24227;-75
2022/03/13 10:39:34;;;;;;;22.60;20.20;;;;;;;7.57;33.10;98865.40;105829;1280;23981;-75
2022/03/13 10:42:03;;;;;;;19.90;17.80;;;;;;;7.66;33.60;98864.56;105634;1280;22560;-76
2022/03/13 10:44:52;;;;;;;21.70;19.40;;;;;;;7.77;33.45;98862.50;105846;1280;22501;-75
2022/03/13 10:47:25;;;;;;;24.20;21.80;;;;;;;7.83;33.57;98859.60;105837;1280;22610;-75
2022/03/13 10:49:53;;;;;;;25.00;22.60;;;;;;;7.92;33.60;98862.77;105886;1280;25339;-75
2022/03/13 10:52:30;;;;;;;24.30;21.50;;;;;;;8.00;33.29;98865.20;105683;1280;25216;-76
2022/03/13 10:55:22;;;;;;;25.20;21.50;;;;;;;8.06;32.60;98860.73;105851;1280;24341;-76
2022/03/13 10:57:53;;;;;;;23.40;19.40;;;;;;;8.14;33.13;98858.52;105776;1280;24246;-74
2022/03/13 11:00:23;;;;;;;17.00;15.30;;;;;;;8.26;32.31;98852.27;105718;1280;23231;-77
2022/03/13 11:02:51;;;;;;;15.50;13.90;;;;;;;8.36;31.60;98847.23;105678;1280;22722;-74
2022/03/13 11:05:19;;;;;;;16.50;14.80;;;;;;;8.43;30.59;98847.86;105467;1281;22561;-77
2022/03/13 11:07:53;;;;;;;18.40;16.50;;;;;;;8.48;30.64;98849.61;105783;1280;22604;-74
2022/03/13 11:10:21;;;;;;;28.20;18.00;;;;;;;8.56;30.62;98851.32;105844;1280;22698;-77
2022/03/13 11:12:52;;;;;;;21.20;19.10;;;;;;;8.69;30.83;98847.02;106026;1280;22620;-75
2022/03/13 11:15:21;;;;;;;16.80;15.10;;;;;;;8.85;30.60;98846.48;106626;1280;24411;-79
2022/03/13 11:17:49;;;;;;;20.10;18.00;;;;;;;8.98;30.47;98840.55;105852;1280;24250;-75
2022/03/13 11:20:18;;;;;;;18.00;16.20;;;;;;;9.11;30.28;98839.50;105678;1280;24495;-79